Time;durP1;ratioP1;P1;durP2;ratioP2;P2;SDS_P1;SDS_P2;PMS_P1;PMS_P2;Temp;Humidity;BMP_temperature;BMP_pressure;BME280_temperature;BME280_humidity;BME280_pressure;Samples;Min_cycle;Max_cycle;Signal;HPM_P1;HPM_P2
2023/09/09 00:00:51;;;;;;;67.60;45.05;;;;;;;-147.95;100.00;58458.38;5053306;28;20055;-80
2023/09/09 00:03:19;;;;;;;69.47;44.00;;;;;;;-147.95;100.00;58458.38;5083529;28;20028;-80
2023/09/09 00:05:44;;;;;;;72.70;43.45;;;;;;;-147.95;100.00;58458.38;5081737;28;20039;-80
2023/09/09 00:08:10;;;;;;;64.60;43.97;;;;;;;-147.95;100.00;58458.38;5083849;28;20036;-80
2023/09/09 00:10:37;;;;;;;70.28;45.83;;;;;;;-147.95;100.00;58458.38;5084776;28;20059;-80
2023/09/09 00:13:04;;;;;;;68.00;46.55;;;;;;;-147.95;100.00;58458.38;5085083;28;20016;-80
2023/09/09 00:15:31;;;;;;;74.30;48.10;;;;;;;-147.95;100.00;58458.38;5083057;28;21186;-80
2023/09/09 00:17:58;;;;;;;65.75;45.47;;;;;;;-147.95;100.00;58458.38;5083123;28;20024;-80
2023/09/09 00:20:34;;;;;;;60.15;42.53;;;;;;;-147.95;100.00;58458.38;5070541;28;20028;-80
2023/09/09 00:23:07;;;;;;;62.15;41.13;;;;;;;-147.95;100.00;58458.38;5086001;28;20027;-80
2023/09/09 00:25:37;;;;;;;67.75;47.58;;;;;;;-147.95;100.00;58458.38;5083650;28;20588;-80
2023/09/09 00:28:03;;;;;;;87.30;50.72;;;;;;;-147.95;100.00;58458.38;5098506;28;20047;-80
2023/09/09 00:30:30;;;;;;;65.82;46.08;;;;;;;-147.95;100.00;58458.38;5083041;28;20530;-80
2023/09/09 00:32:57;;;;;;;83.05;51.35;;;;;;;-147.95;100.00;58458.38;5087647;28;20032;-80
2023/09/09 00:35:22;;;;;;;87.00;52.53;;;;;;;-147.95;100.00;58458.38;5084709;28;20035;-81
2023/09/09 00:37:48;;;;;;;77.78;48.83;;;;;;;-147.95;100.00;58458.38;5067179;28;20039;-80
2023/09/09 00:40:13;;;;;;;67.03;44.90;;;;;;;-147.95;100.00;58458.38;5069125;28;20035;-80
2023/09/09 00:42:38;;;;;;;68.88;45.78;;;;;;;-147.95;100.00;58458.38;5067125;28;20040;-81
2023/09/09 00:45:04;;;;;;;71.05;47.00;;;;;;;-147.95;100.00;58458.38;5083736;28;20502;-80
2023/09/09 00:47:30;;;;;;;74.95;48.35;;;;;;;-147.95;100.00;58458.38;5069011;28;20042;-80
2023/09/09 00:49:55;;;;;;;73.05;46.13;;;;;;;-147.95;100.00;58458.38;5084095;28;20024;-80
2023/09/09 00:52:21;;;;;;;80.43;48.60;;;;;;;-147.95;100.00;58458.38;5067970;28;20067;-80
2023/09/09 00:54:47;;;;;;;78.65;48.05;;;;;;;-147.95;100.00;58458.38;5086216;28;20128;-80
2023/09/09 00:57:16;;;;;;;76.95;45.92;;;;;;;-147.95;100.00;58458.38;5065069;28;20031;-80
2023/09/09 00:59:42;;;;;;;70.75;45.47;;;;;;;-147.95;100.00;58458.38;5083533;28;20016;-80
2023/09/09 01:02:08;;;;;;;72.55;45.50;;;;;;;-147.95;100.00;58458.38;5086694;28;20024;-80
2023/09/09 01:04:33;;;;;;;73.20;47.33;;;;;;;-147.95;100.00;58458.38;5086223;28;20035;-80
2023/09/09 01:07:03;;;;;;;75.43;45.45;;;;;;;-147.95;100.00;58458.38;5078376;28;20041;-80
2023/09/09 01:09:33;;;;;;;76.10;44.67;;;;;;;-147.95;100.00;58458.38;5083101;28;20024;-80
2023/09/09 01:11:59;;;;;;;65.65;42.88;;;;;;;-147.95;100.00;58458.38;5054266;28;20118;-87
2023/09/09 01:14:26;;;;;;;66.10;44.30;;;;;;;-147.95;100.00;58458.38;5083909;28;20020;-88
2023/09/09 01:16:53;;;;;;;60.50;42.30;;;;;;;-147.95;100.00;58458.38;5085080;28;20422;-88
2023/09/09 01:19:19;;;;;;;57.38;38.80;;;;;;;-147.95;100.00;58458.38;5084949;28;20115;-87
2023/09/09 01:21:46;;;;;;;61.97;39.65;;;;;;;-147.95;100.00;58458.38;5083971;28;20036;-87
2023/09/09 01:24:15;;;;;;;59.13;39.30;;;;;;;-147.95;100.00;58458.38;5087124;28;20553;-88
2023/09/09 01:26:42;;;;;;;66.38;39.08;;;;;;;-147.95;100.00;58458.38;5081659;28;20076;-87
2023/09/09 01:29:07;;;;;;;54.55;35.30;;;;;;;-147.95;100.00;58458.38;5081277;28;20043;-87
2023/09/09 01:31:34;;;;;;;57.63;35.22;;;;;;;-147.95;100.00;58458.38;5085417;28;20035;-87
2023/09/09 01:33:59;;;;;;;67.22;36.67;;;;;;;-147.95;100.00;58458.38;5067454;28;20031;-87
2023/09/09 01:36:25;;;;;;;52.60;36.70;;;;;;;-147.95;100.00;58458.38;5078600;28;20487;-87
2023/09/09 01:38:52;;;;;;;65.18;40.10;;;;;;;-147.95;100.00;58458.38;5079767;28;20398;-87
2023/09/09 01:41:17;;;;;;;64.95;40.67;;;;;;;-147.95;100.00;58458.38;5084113;28;20039;-86
2023/09/09 01:43:43;;;;;;;64.03;42.13;;;;;;;-147.95;100.00;58458.38;5083462;28;20032;-87
2023/09/09 01:46:08;;;;;;;79.97;49.58;;;;;;;-147.95;100.00;58458.38;5070666;28;20446;-87
2023/09/09 01:48:34;;;;;;;62.92;41.80;;;;;;;-147.95;100.00;58458.38;5083575;28;20036;-87
2023/09/09 01:51:00;;;;;;;61.25;39.15;;;;;;;-147.95;100.00;58458.38;5083602;28;20552;-87
2023/09/09 01:53:25;;;;;;;64.03;42.95;;;;;;;-147.95;100.00;58458.38;5081801;28;20032;-87
2023/09/09 01:55:50;;;;;;;60.80;40.83;;;;;;;-147.95;100.00;58458.38;5069996;28;20393;-87
2023/09/09 01:58:16;;;;;;;68.72;45.30;;;;;;;-147.95;100.00;58458.38;5053667;28;20032;-87
2023/09/09 02:00:42;;;;;;;70.78;41.67;;;;;;;-147.95;100.00;58458.38;5082618;28;20038;-87
2023/09/09 02:03:08;;;;;;;67.53;42.28;;;;;;;-147.95;100.00;58458.38;5082155;28;20055;-86
2023/09/09 02:05:33;;;;;;;68.22;45.80;;;;;;;-147.95;100.00;58458.38;5081815;28;20036;-87
2023/09/09 02:07:59;;;;;;;74.30;43.10;;;;;;;-147.95;100.00;58458.38;5081986;28;20032;-87
2023/09/09 02:10:25;;;;;;;70.90;46.05;;;;;;;-147.95;100.00;58458.38;5084228;28;20023;-87
2023/09/09 02:12:50;;;;;;;69.55;45.95;;;;;;;-147.95;100.00;58458.38;5083093;28;20115;-87
2023/09/09 02:15:17;;;;;;;81.28;46.63;;;;;;;-147.95;100.00;58458.38;5082960;28;20133;-87
2023/09/09 02:17:42;;;;;;;74.82;46.03;;;;;;;-147.95;100.00;58458.38;5079317;28;20063;-87
2023/09/09 02:20:09;;;;;;;67.43;44.08;;;;;;;-147.95;100.00;58458.38;5084154;28;20140;-87
2023/09/09 02:22:35;;;;;;;69.20;46.75;;;;;;;-147.95;100.00;58458.38;5084072;28;20027;-87
2023/09/09 02:25:00;;;;;;;71.30;45.45;;;;;;;-147.95;100.00;58458.38;5089480;28;20513;-89
2023/09/09 02:27:26;;;;;;;72.18;46.63;;;;;;;-147.95;100.00;58458.38;5079342;28;20054;-87
2023/09/09 02:29:52;;;;;;;61.00;39.97;;;;;;;-147.95;100.00;58458.38;5070714;28;20506;-86
2023/09/09 02:32:18;;;;;;;58.35;38.72;;;;;;;-147.95;100.00;58458.38;5086767;28;20020;-86
2023/09/09 02:34:43;;;;;;;59.00;40.55;;;;;;;-147.95;100.00;58458.38;5084500;28;20035;-86
2023/09/09 02:37:16;;;;;;;66.15;42.63;;;;;;;-147.95;100.00;58458.38;5089641;28;20048;-86
2023/09/09 02:39:45;;;;;;;67.57;43.72;;;;;;;-147.95;100.00;58458.38;5079369;28;20075;-86
2023/09/09 02:42:13;;;;;;;59.88;42.03;;;;;;;-147.95;100.00;58458.38;5072898;28;20028;-86
2023/09/09 02:44:38;;;;;;;69.97;43.45;;;;;;;-147.95;100.00;58458.38;5085954;28;21561;-86
2023/09/09 02:47:05;;;;;;;62.00;42.30;;;;;;;-147.95;100.00;58458.38;5086057;28;20062;-86
2023/09/09 02:49:31;;;;;;;66.47;42.83;;;;;;;-147.95;100.00;58458.38;5085986;28;20069;-87
2023/09/09 02:51:56;;;;;;;68.13;42.20;;;;;;;-147.95;100.00;58458.38;5051941;28;20028;-85
2023/09/09 02:54:22;;;;;;;63.20;41.17;;;;;;;-147.95;100.00;58458.38;5089285;28;20028;-86
2023/09/09 02:56:47;;;;;;;66.07;43.00;;;;;;;-147.95;100.00;58458.38;5090969;28;20513;-86
2023/09/09 02:59:12;;;;;;;61.13;40.28;;;;;;;-147.95;100.00;58458.38;5075864;28;20043;-86
2023/09/09 03:01:38;;;;;;;62.60;40.55;;;;;;;-147.95;100.00;58458.38;5087945;28;20082;-87
2023/09/09 03:04:03;;;;;;;59.28;40.70;;;;;;;-147.95;100.00;58458.38;5074873;28;20558;-87
2023/09/09 03:06:29;;;;;;;65.60;43.53;;;;;;;-147.95;100.00;58458.38;5064991;28;20129;-87
2023/09/09 03:08:54;;;;;;;64.40;43.17;;;;;;;-147.95;100.00;58458.38;5071727;28;20853;-87
2023/09/09 03:11:20;;;;;;;60.53;41.28;;;;;;;-147.95;100.00;58458.38;5088644;28;20107;-87
2023/09/09 03:13:45;;;;;;;60.55;41.58;;;;;;;-147.95;100.00;58458.38;5072585;28;20029;-87
2023/09/09 03:16:10;;;;;;;69.40;43.60;;;;;;;-147.95;100.00;58458.38;5073519;28;20487;-86
2023/09/09 03:18:36;;;;;;;63.40;41.35;;;;;;;-147.95;100.00;58458.38;5055077;28;20039;-85
2023/09/09 03:21:02;;;;;;;64.63;42.85;;;;;;;-147.95;100.00;58458.38;5068673;28;20271;-87
2023/09/09 03:23:27;;;;;;;63.97;40.63;;;;;;;-147.95;100.00;58458.38;5087367;28;20028;-86
2023/09/09 03:25:52;;;;;;;56.25;37.38;;;;;;;-147.95;100.00;58458.38;5084981;28;20051;-86
2023/09/09 03:28:18;;;;;;;60.00;39.78;;;;;;;-147.95;100.00;58458.38;5082305;28;20048;-86
2023/09/09 03:30:57;;;;;;;61.17;40.28;;;;;;;-147.95;100.00;58458.38;5070301;28;20036;-79
2023/09/09 03:33:22;;;;;;;61.45;40.38;;;;;;;-147.95;100.00;58458.38;5082797;28;20028;-80
2023/09/09 03:35:48;;;;;;;62.05;40.88;;;;;;;-147.95;100.00;58458.38;5086997;28;20070;-79
2023/09/09 03:38:13;;;;;;;64.70;42.55;;;;;;;-147.95;100.00;58458.38;5083551;28;20542;-80
2023/09/09 03:40:39;;;;;;;66.70;43.15;;;;;;;-147.95;100.00;58458.38;5068749;28;20574;-79
2023/09/09 03:43:05;;;;;;;60.40;39.05;;;;;;;-147.95;100.00;58458.38;5083937;28;20032;-79
2023/09/09 03:45:31;;;;;;;62.80;40.15;;;;;;;-147.95;100.00;58458.38;5084798;28;20031;-79
2023/09/09 03:47:56;;;;;;;61.67;39.50;;;;;;;-147.95;100.00;58458.38;5082602;28;20043;-80
2023/09/09 03:50:22;;;;;;;56.38;38.67;;;;;;;-147.95;100.00;58458.38;5082262;28;20567;-80
2023/09/09 03:52:47;;;;;;;63.30;37.10;;;;;;;-147.95;100.00;58458.38;5069677;28;20077;-80
2023/09/09 03:55:13;;;;;;;60.55;39.38;;;;;;;-147.95;100.00;58458.38;5066906;28;20441;-80
2023/09/09 03:57:38;;;;;;;66.00;40.08;;;;;;;-147.95;100.00;58458.38;5083704;28;20127;-79
2023/09/09 04:00:09;;;;;;;64.95;42.65;;;;;;;-147.95;100.00;58458.38;5085050;28;20054;-80
2023/09/09 04:02:34;;;;;;;62.00;40.35;;;;;;;-147.95;100.00;58458.38;5087110;28;20035;-80
2023/09/09 04:05:00;;;;;;;64.82;40.15;;;;;;;-147.95;100.00;58458.38;5092007;28;20024;-79
2023/09/09 04:07:25;;;;;;;67.60;42.47;;;;;;;-147.95;100.00;58458.38;5070806;28;20040;-79
2023/09/09 04:09:53;;;;;;;65.50;41.00;;;;;;;-147.95;100.00;58458.38;5088958;28;20060;-79
2023/09/09 04:12:18;;;;;;;68.97;43.85;;;;;;;-147.95;100.00;58458.38;5081705;28;20031;-80
2023/09/09 04:14:43;;;;;;;70.72;43.85;;;;;;;-147.95;100.00;58458.38;5048610;28;20078;-79
2023/09/09 04:17:09;;;;;;;62.40;41.45;;;;;;;-147.95;100.00;58458.38;5068941;28;20491;-80
2023/09/09 04:19:34;;;;;;;71.18;41.72;;;;;;;-147.95;100.00;58458.38;5067018;28;20028;-79
2023/09/09 04:22:01;;;;;;;65.05;39.30;;;;;;;-147.95;100.00;58458.38;5084561;28;20075;-79
2023/09/09 04:24:26;;;;;;;69.72;41.00;;;;;;;-147.95;100.00;58458.38;5067656;28;20482;-79
2023/09/09 04:26:53;;;;;;;74.28;42.53;;;;;;;-147.95;100.00;58458.38;5079027;28;20132;-79
2023/09/09 04:29:19;;;;;;;72.10;41.80;;;;;;;-147.95;100.00;58458.38;5080966;28;20027;-80
2023/09/09 04:31:46;;;;;;;64.78;43.10;;;;;;;-147.95;100.00;58458.38;5085958;28;20179;-79
2023/09/09 04:34:13;;;;;;;62.38;38.28;;;;;;;-147.95;100.00;58458.38;5082335;28;20032;-80
2023/09/09 04:36:40;;;;;;;66.55;40.67;;;;;;;-147.95;100.00;58458.38;5082149;28;20024;-80
2023/09/09 04:39:06;;;;;;;65.75;40.08;;;;;;;-147.95;100.00;58458.38;5083987;28;20020;-79
2023/09/09 04:41:31;;;;;;;68.30;39.42;;;;;;;-147.95;100.00;58458.38;5083435;28;20486;-79
2023/09/09 04:43:57;;;;;;;61.53;38.38;;;;;;;-147.95;100.00;58458.38;5070400;28;20052;-79
2023/09/09 04:46:22;;;;;;;57.05;36.60;;;;;;;-147.95;100.00;58458.38;5068737;28;20432;-80
2023/09/09 04:48:51;;;;;;;62.42;37.78;;;;;;;-147.95;100.00;58458.38;5065716;28;20040;-79
2023/09/09 04:51:17;;;;;;;65.53;41.45;;;;;;;-147.95;100.00;58458.38;5082877;28;20020;-79
2023/09/09 04:53:42;;;;;;;60.80;38.83;;;;;;;-147.95;100.00;58458.38;5051029;28;20089;-80
2023/09/09 04:56:07;;;;;;;56.63;39.88;;;;;;;-147.95;100.00;58458.38;5083916;28;20115;-80
2023/09/09 04:58:33;;;;;;;60.10;39.25;;;;;;;-147.95;100.00;58458.38;5085236;28;20028;-80
2023/09/09 05:00:58;;;;;;;66.32;42.17;;;;;;;-147.95;100.00;58458.38;5083133;28;20490;-80
2023/09/09 05:03:24;;;;;;;59.38;37.72;;;;;;;-147.95;100.00;58458.38;5080982;28;20028;-80
2023/09/09 05:05:49;;;;;;;57.53;37.35;;;;;;;-147.95;100.00;58458.38;5081004;28;20580;-79
2023/09/09 05:08:15;;;;;;;79.75;39.13;;;;;;;-147.95;100.00;58458.38;5082835;28;20024;-79
2023/09/09 05:10:40;;;;;;;64.78;39.33;;;;;;;-147.95;100.00;58458.38;5082531;28;20520;-79
2023/09/09 05:13:05;;;;;;;59.72;38.05;;;;;;;-147.95;100.00;58458.38;5081074;28;20077;-79
2023/09/09 05:15:31;;;;;;;58.80;38.95;;;;;;;-147.95;100.00;58458.38;5088775;28;20021;-79
2023/09/09 05:17:57;;;;;;;65.97;39.72;;;;;;;-147.95;100.00;58458.38;5085188;28;20031;-79
2023/09/09 05:20:23;;;;;;;58.47;38.40;;;;;;;-147.95;100.00;58458.38;5082028;28;20554;-79
2023/09/09 05:22:49;;;;;;;60.08;38.38;;;;;;;-147.95;100.00;58458.38;5067358;28;20150;-81
2023/09/09 05:25:16;;;;;;;60.05;38.80;;;;;;;-147.95;100.00;58458.38;5081906;28;20036;-80
2023/09/09 05:27:41;;;;;;;57.42;36.38;;;;;;;-147.95;100.00;58458.38;5084839;28;20141;-80
2023/09/09 05:30:07;;;;;;;58.65;36.55;;;;;;;-147.95;100.00;58458.38;5067672;28;20036;-80
2023/09/09 05:32:34;;;;;;;65.03;39.97;;;;;;;-147.95;100.00;58458.38;5085066;28;20469;-78
2023/09/09 05:34:59;;;;;;;62.50;40.97;;;;;;;-147.95;100.00;58458.38;5082485;28;20032;-80
2023/09/09 05:37:27;;;;;;;62.90;41.95;;;;;;;-147.95;100.00;58458.38;5066080;28;20040;-80
2023/09/09 05:39:52;;;;;;;72.82;43.60;;;;;;;-147.95;100.00;58458.38;5082872;28;20074;-79
2023/09/09 05:42:18;;;;;;;71.28;42.65;;;;;;;-147.95;100.00;58458.38;5078546;28;20061;-80
2023/09/09 05:44:43;;;;;;;72.78;44.95;;;;;;;-147.95;100.00;58458.38;5079454;28;20065;-80
2023/09/09 05:47:09;;;;;;;65.13;42.28;;;;;;;-147.95;100.00;58458.38;5078467;28;20033;-80
2023/09/09 05:49:34;;;;;;;68.65;41.88;;;;;;;-147.95;100.00;58458.38;5079939;28;20111;-79
2023/09/09 05:52:00;;;;;;;54.80;34.40;;;;;;;-147.95;100.00;58458.38;5083541;28;20040;-80
2023/09/09 05:54:25;;;;;;;56.30;38.88;;;;;;;-147.95;100.00;58458.38;5065462;28;20028;-80
2023/09/09 05:56:50;;;;;;;68.13;42.03;;;;;;;-147.95;100.00;58458.38;5057092;28;20556;-80
2023/09/09 05:59:16;;;;;;;74.55;46.28;;;;;;;-147.95;100.00;58458.38;5084135;28;20028;-80
2023/09/09 06:01:42;;;;;;;58.28;37.85;;;;;;;-147.95;100.00;58458.38;5068926;28;20074;-81
2023/09/09 06:04:07;;;;;;;55.72;36.20;;;;;;;-147.95;100.00;58458.38;5071849;28;20059;-81
2023/09/09 06:06:33;;;;;;;56.83;38.47;;;;;;;-147.95;100.00;58458.38;5067315;28;20039;-80
2023/09/09 06:09:00;;;;;;;65.15;40.22;;;;;;;-147.95;100.00;58458.38;5084876;28;20047;-80
2023/09/09 06:11:25;;;;;;;57.63;38.85;;;;;;;-147.95;100.00;58458.38;5077649;28;20028;-80
2023/09/09 06:13:51;;;;;;;66.35;42.22;;;;;;;-147.95;100.00;58458.38;5085763;28;20086;-81
2023/09/09 06:16:17;;;;;;;71.63;47.03;;;;;;;-147.95;100.00;58458.38;5064343;28;20032;-80
2023/09/09 06:18:42;;;;;;;78.57;50.13;;;;;;;-147.95;100.00;58458.38;5078026;28;20024;-80
2023/09/09 06:21:08;;;;;;;76.47;47.20;;;;;;;-147.95;100.00;58458.38;5070878;28;20035;-81
2023/09/09 06:23:35;;;;;;;74.53;48.85;;;;;;;-147.95;100.00;58458.38;5051488;28;20921;-81
2023/09/09 06:26:00;;;;;;;94.10;56.15;;;;;;;-147.95;100.00;58458.38;5082559;28;20047;-81
2023/09/09 06:28:26;;;;;;;100.00;58.30;;;;;;;-147.95;100.00;58458.38;5083520;28;20066;-81
2023/09/09 06:30:51;;;;;;;102.50;60.03;;;;;;;-147.95;100.00;58458.38;5060660;28;20391;-81
2023/09/09 06:33:17;;;;;;;103.75;62.78;;;;;;;-147.95;100.00;58458.38;5053590;28;20023;-81
2023/09/09 06:35:52;;;;;;;122.20;68.28;;;;;;;-147.95;100.00;58458.38;5079628;28;20331;-81
2023/09/09 06:38:18;;;;;;;118.50;69.57;;;;;;;-147.95;100.00;58458.38;5080405;28;20066;-81
2023/09/09 06:40:44;;;;;;;113.43;71.43;;;;;;;-147.95;100.00;58458.38;5085640;28;20115;-81
2023/09/09 06:43:11;;;;;;;119.68;72.88;;;;;;;-147.95;100.00;58458.38;5093337;28;20461;-81
2023/09/09 06:45:36;;;;;;;127.88;79.28;;;;;;;-147.95;100.00;58458.38;5080579;28;20028;-82
2023/09/09 06:48:03;;;;;;;130.35;80.45;;;;;;;-147.95;100.00;58458.38;5079936;28;20441;-82
2023/09/09 06:50:29;;;;;;;134.15;83.47;;;;;;;-147.95;100.00;58458.38;5087179;28;20102;-81
2023/09/09 06:52:54;;;;;;;145.82;88.80;;;;;;;-147.95;100.00;58458.38;5079763;28;20457;-81
2023/09/09 06:55:20;;;;;;;148.25;87.03;;;;;;;-147.95;100.00;58458.38;5078649;28;20024;-81
2023/09/09 06:57:45;;;;;;;142.25;83.78;;;;;;;-147.95;100.00;58458.38;5078268;28;20712;-82
2023/09/09 07:00:11;;;;;;;156.25;91.43;;;;;;;-147.95;100.00;58458.38;5086731;28;20024;-81
2023/09/09 07:02:36;;;;;;;159.57;93.47;;;;;;;-147.95;100.00;58458.38;5068631;28;20032;-81
2023/09/09 07:05:03;;;;;;;170.45;100.60;;;;;;;-147.95;100.00;58458.38;5058114;28;20099;-80
2023/09/09 07:07:28;;;;;;;175.35;101.15;;;;;;;-147.95;100.00;58458.38;5067445;28;20032;-80
2023/09/09 07:09:54;;;;;;;170.45;97.88;;;;;;;-147.95;100.00;58458.38;5083049;28;20138;-80
2023/09/09 07:12:19;;;;;;;170.55;99.55;;;;;;;-147.95;100.00;58458.38;5086327;28;20044;-80
2023/09/09 07:14:49;;;;;;;182.90;106.10;;;;;;;-147.95;100.00;58458.38;5083731;28;20024;-80
2023/09/09 07:17:14;;;;;;;193.15;111.47;;;;;;;-147.95;100.00;58458.38;5082407;28;20028;-80
2023/09/09 07:19:40;;;;;;;193.20;109.00;;;;;;;-147.95;100.00;58458.38;5072402;28;20028;-80
2023/09/09 07:22:06;;;;;;;179.52;104.82;;;;;;;-147.95;100.00;58458.38;5083799;28;20054;-80
2023/09/09 07:24:31;;;;;;;178.95;102.95;;;;;;;-147.95;100.00;58458.38;5084259;28;20074;-80
2023/09/09 07:26:59;;;;;;;186.20;107.35;;;;;;;-147.95;100.00;58458.38;5089944;28;20042;-79
2023/09/09 07:29:25;;;;;;;190.63;110.68;;;;;;;-147.95;100.00;58458.38;5083254;28;20166;-79
2023/09/09 07:31:50;;;;;;;178.40;102.57;;;;;;;-147.95;100.00;58458.38;5053901;28;20139;-79
2023/09/09 07:34:16;;;;;;;198.05;111.88;;;;;;;-147.95;100.00;58458.38;5091529;28;20020;-80
2023/09/09 07:36:41;;;;;;;203.68;115.40;;;;;;;-147.95;100.00;58458.38;5067089;28;20701;-79
2023/09/09 07:39:07;;;;;;;213.90;123.90;;;;;;;-147.95;100.00;58458.38;5068888;28;20032;-79
2023/09/09 07:41:32;;;;;;;213.30;123.20;;;;;;;-147.95;100.00;58458.38;5088462;28;20027;-79
2023/09/09 07:43:58;;;;;;;216.20;123.75;;;;;;;-147.95;100.00;58458.38;5073207;28;20033;-79
2023/09/09 07:46:23;;;;;;;225.45;126.30;;;;;;;-147.95;100.00;58458.38;5085643;28;20028;-79
2023/09/09 07:48:49;;;;;;;199.63;117.47;;;;;;;-147.95;100.00;58458.38;5084276;28;20029;-79
2023/09/09 07:51:15;;;;;;;177.02;108.03;;;;;;;-147.95;100.00;58458.38;5087214;28;20038;-79
2023/09/09 07:53:40;;;;;;;201.13;116.40;;;;;;;-147.95;100.00;58458.38;5067119;28;20029;-79
2023/09/09 07:56:06;;;;;;;193.13;116.88;;;;;;;-147.95;100.00;58458.38;5086841;28;20032;-81
2023/09/09 07:58:31;;;;;;;188.00;113.63;;;;;;;-147.95;100.00;58458.38;5095181;28;20031;-80
2023/09/09 08:01:03;;;;;;;168.13;102.07;;;;;;;-147.95;100.00;58458.38;5066352;28;20032;-80
2023/09/09 08:03:29;;;;;;;171.48;102.43;;;;;;;-147.95;100.00;58458.38;5087300;28;20036;-80
2023/09/09 08:05:56;;;;;;;184.93;111.35;;;;;;;-147.95;100.00;58458.38;5089701;28;20020;-81
2023/09/09 08:08:21;;;;;;;173.98;106.68;;;;;;;-147.95;100.00;58458.38;5084524;28;20082;-80
2023/09/09 08:10:48;;;;;;;181.15;109.68;;;;;;;-147.95;100.00;58458.38;5065046;28;20029;-81
2023/09/09 08:13:15;;;;;;;191.80;116.25;;;;;;;-147.95;100.00;58458.38;5088543;27;20616;-81
2023/09/09 08:15:40;;;;;;;193.63;119.85;;;;;;;-147.95;100.00;58458.38;5086846;28;20127;-80
2023/09/09 08:18:06;;;;;;;192.52;117.70;;;;;;;-147.95;100.00;58458.38;5087067;28;20131;-82
2023/09/09 08:20:31;;;;;;;186.07;115.78;;;;;;;-147.95;100.00;58458.38;5053725;28;20086;-82
2023/09/09 08:22:57;;;;;;;184.02;110.95;;;;;;;-147.95;100.00;58458.38;5077613;28;20406;-81
2023/09/09 08:25:22;;;;;;;178.63;108.55;;;;;;;-147.95;100.00;58458.38;5083199;28;20028;-81
2023/09/09 08:27:47;;;;;;;187.43;113.65;;;;;;;-147.95;100.00;58458.38;5060545;28;20032;-81
2023/09/09 08:30:15;;;;;;;165.25;105.05;;;;;;;-147.95;100.00;58458.38;5071372;28;20041;-82
2023/09/09 08:32:40;;;;;;;175.80;105.28;;;;;;;-147.95;100.00;58458.38;5090297;28;20039;-81
2023/09/09 08:35:06;;;;;;;160.20;101.78;;;;;;;-147.95;100.00;58458.38;5056680;28;20508;-81
2023/09/09 08:37:31;;;;;;;164.00;101.82;;;;;;;-147.95;100.00;58458.38;5085391;28;20119;-81
2023/09/09 08:39:57;;;;;;;147.60;92.18;;;;;;;-147.95;100.00;58458.38;5083991;28;20029;-81
2023/09/09 08:42:35;;;;;;;146.57;92.15;;;;;;;-147.95;100.00;58458.38;5086806;28;20732;-82
2023/09/09 08:45:16;;;;;;;158.70;99.20;;;;;;;-147.95;100.00;58458.38;5088149;28;20135;-82
2023/09/09 08:47:44;;;;;;;148.20;92.55;;;;;;;-147.95;100.00;58458.38;5080033;28;20098;-82
2023/09/09 08:50:10;;;;;;;152.40;99.15;;;;;;;-147.95;100.00;58458.38;5087362;28;20020;-82
2023/09/09 08:52:37;;;;;;;144.98;92.97;;;;;;;-147.95;100.00;58458.38;5081225;28;20044;-82
2023/09/09 08:55:02;;;;;;;146.70;93.90;;;;;;;-147.95;100.00;58458.38;5087365;28;20035;-82
2023/09/09 08:57:29;;;;;;;145.75;96.22;;;;;;;-147.95;100.00;58458.38;5081591;28;20032;-83
2023/09/09 08:59:57;;;;;;;143.02;92.68;;;;;;;-147.95;100.00;58458.38;5074476;28;20371;-83
2023/09/09 09:02:22;;;;;;;135.05;87.70;;;;;;;-147.95;100.00;58458.38;5065908;28;20192;-82
2023/09/09 09:04:50;;;;;;;107.65;69.95;;;;;;;-147.95;100.00;58458.38;5086686;28;20474;-83
2023/09/09 09:07:16;;;;;;;103.13;68.32;;;;;;;-147.95;100.00;58458.38;5086303;28;20028;-82
2023/09/09 09:09:42;;;;;;;106.93;65.20;;;;;;;-147.95;100.00;58458.38;5072146;28;20550;-83
2023/09/09 09:12:08;;;;;;;82.72;48.85;;;;;;;-147.95;100.00;58458.38;5049353;28;20020;-82
2023/09/09 09:14:34;;;;;;;87.97;56.33;;;;;;;-147.95;100.00;58458.38;5086171;28;20146;-83
2023/09/09 09:17:04;;;;;;;85.75;56.97;;;;;;;-147.95;100.00;58458.38;5070474;28;20123;-82
2023/09/09 09:19:31;;;;;;;89.03;59.25;;;;;;;-147.95;100.00;58458.38;5086514;28;20034;-82
2023/09/09 09:21:58;;;;;;;89.50;57.03;;;;;;;-147.95;100.00;58458.38;5097153;28;20028;-82
2023/09/09 09:24:28;;;;;;;77.45;50.85;;;;;;;-147.95;100.00;58458.38;5089746;28;20023;-81
2023/09/09 09:26:58;;;;;;;72.60;47.05;;;;;;;-147.95;100.00;58458.38;5075548;28;20479;-82
2023/09/09 09:29:24;;;;;;;88.68;55.70;;;;;;;-147.95;100.00;58458.38;5069094;28;20040;-81
2023/09/09 09:31:51;;;;;;;94.30;63.13;;;;;;;-147.95;100.00;58458.38;5075262;28;20055;-81
2023/09/09 09:34:18;;;;;;;95.03;60.22;;;;;;;-147.95;100.00;58458.38;5084545;28;20024;-82
2023/09/09 09:36:44;;;;;;;93.20;56.13;;;;;;;-147.95;100.00;58458.38;5067536;28;20028;-82
2023/09/09 09:39:11;;;;;;;77.93;51.17;;;;;;;-147.95;100.00;58458.38;5082538;28;20047;-81
2023/09/09 09:41:43;;;;;;;91.97;58.42;;;;;;;-147.95;100.00;58458.38;5082520;28;20028;-82
2023/09/09 09:44:19;;;;;;;99.73;62.53;;;;;;;-147.95;100.00;58458.38;5074564;28;20028;-82
2023/09/09 09:47:17;;;;;;;98.88;64.50;;;;;;;-147.95;100.00;58458.38;5086847;28;20812;-82
2023/09/09 09:49:48;;;;;;;88.97;57.75;;;;;;;-147.95;100.00;58458.38;5066304;28;20048;-88
2023/09/09 09:52:33;;;;;;;78.32;51.70;;;;;;;-147.95;100.00;58458.38;5081932;28;20588;-88
2023/09/09 09:54:59;;;;;;;82.97;48.92;;;;;;;-147.95;100.00;58458.38;5088580;28;20031;-90
2023/09/09 09:57:24;;;;;;;78.78;49.97;;;;;;;-147.95;100.00;58458.38;5082979;28;20493;-89
2023/09/09 09:59:50;;;;;;;84.55;51.22;;;;;;;-147.95;100.00;58458.38;5070544;28;20125;-89
2023/09/09 10:02:16;;;;;;;73.03;47.53;;;;;;;-147.95;100.00;58458.38;5087939;28;20089;-89
2023/09/09 10:04:43;;;;;;;71.05;45.58;;;;;;;-147.95;100.00;58458.38;5056558;28;20177;-93
2023/09/09 10:07:17;;;;;;;76.45;46.00;;;;;;;-147.95;100.00;58458.38;5067906;28;20024;-93
2023/09/09 10:10:09;;;;;;;66.57;44.30;;;;;;;-147.95;100.00;58458.38;5072299;28;20135;-88
2023/09/09 10:12:47;;;;;;;71.55;43.22;;;;;;;-147.95;100.00;58458.38;5086829;28;20012;-95
2023/09/09 10:15:15;;;;;;;72.55;49.13;;;;;;;-147.95;100.00;58458.38;5081908;28;20031;-90
2023/09/09 10:17:41;;;;;;;65.55;42.67;;;;;;;-147.95;100.00;58458.38;5087669;28;20056;-89
2023/09/09 10:20:08;;;;;;;61.90;36.20;;;;;;;-147.95;100.00;58458.38;5083616;28;20032;-91
2023/09/09 10:22:36;;;;;;;52.70;34.38;;;;;;;-147.95;100.00;58458.38;5091181;28;20031;-92
2023/09/09 10:25:03;;;;;;;57.72;37.00;;;;;;;-147.95;100.00;58458.38;5073070;28;20132;-92
2023/09/09 10:27:31;;;;;;;49.03;34.63;;;;;;;-147.95;100.00;58458.38;5093380;28;20031;-91
2023/09/09 10:29:58;;;;;;;49.13;31.48;;;;;;;-147.95;100.00;58458.38;5087717;28;20139;-92
2023/09/09 10:32:25;;;;;;;41.35;25.02;;;;;;;-147.95;100.00;58458.38;5077362;28;20032;-89
2023/09/09 10:34:52;;;;;;;36.30;25.65;;;;;;;-147.95;100.00;58458.38;5070732;28;20491;-92
2023/09/09 10:37:18;;;;;;;38.90;25.90;;;;;;;-147.95;100.00;58458.38;5059313;28;20035;-91
2023/09/09 10:39:47;;;;;;;35.00;23.63;;;;;;;-147.95;100.00;58458.38;5077894;28;20046;-93
2023/09/09 10:42:14;;;;;;;38.20;21.80;;;;;;;-147.95;100.00;58458.38;5090207;28;20037;-89
2023/09/09 10:44:39;;;;;;;30.73;20.45;;;;;;;-147.95;100.00;58458.38;5085709;28;20487;-89
2023/09/09 10:47:08;;;;;;;35.03;20.35;;;;;;;-147.95;100.00;58458.38;5068329;28;20062;-89
2023/09/09 10:49:34;;;;;;;37.00;21.23;;;;;;;-147.95;100.00;58458.38;5084673;28;20043;-91